Time;durP1;ratioP1;P1;durP2;ratioP2;P2;SDS_P1;SDS_P2;PMS_P1;PMS_P2;Temp;Humidity;BMP_temperature;BMP_pressure;BME280_temperature;BME280_humidity;BME280_pressure;Samples;Min_cycle;Max_cycle;Signal;HPM_P1;HPM_P2
2022/11/12 00:00:53;;;;;;;14.60;10.10;;;;;;;4.80;90.46;101873.09;5081275;28;20535;-65
2022/11/12 00:03:21;;;;;;;16.77;10.07;;;;;;;4.89;91.39;101880.63;5083430;28;20464;-65
2022/11/12 00:05:49;;;;;;;13.20;10.60;;;;;;;4.96;91.89;101881.25;5097290;28;20507;-65
2022/11/12 00:08:16;;;;;;;13.33;10.00;;;;;;;5.10;92.17;101885.97;5081432;28;20452;-66
2022/11/12 00:10:43;;;;;;;13.53;10.67;;;;;;;5.42;91.43;101879.28;5100552;28;20471;-65
2022/11/12 00:13:10;;;;;;;12.63;8.80;;;;;;;5.42;91.44;101881.94;5102376;28;20478;-65
2022/11/12 00:15:38;;;;;;;15.70;10.90;;;;;;;5.37;91.28;101883.09;5081393;28;21360;-66
2022/11/12 00:18:06;;;;;;;29.50;20.30;;;;;;;4.92;90.62;101881.47;5082209;28;20504;-66
2022/11/12 00:20:33;;;;;;;33.30;22.00;;;;;;;4.68;90.13;101886.84;5099355;28;20587;-66
2022/11/12 00:22:59;;;;;;;31.13;21.33;;;;;;;4.55;89.65;101886.47;5096718;28;20440;-65
2022/11/12 00:25:27;;;;;;;29.20;21.07;;;;;;;4.49;89.83;101889.34;5098036;28;20450;-65
2022/11/12 00:27:53;;;;;;;34.27;23.87;;;;;;;4.47;89.54;101886.78;5102167;28;20885;-66
2022/11/12 00:30:20;;;;;;;30.80;19.60;;;;;;;4.40;89.63;101887.09;5086285;28;20482;-65
2022/11/12 00:32:48;;;;;;;25.90;17.80;;;;;;;4.40;89.48;101892.38;5082152;28;20445;-66
2022/11/12 00:35:15;;;;;;;30.20;18.13;;;;;;;4.37;89.52;101892.50;5092801;28;20447;-65
2022/11/12 00:37:42;;;;;;;27.17;17.33;;;;;;;4.31;89.40;101906.84;5098581;28;20468;-64
2022/11/12 00:40:09;;;;;;;30.77;19.73;;;;;;;4.22;89.71;101902.75;5094552;28;20452;-65
2022/11/12 00:42:36;;;;;;;31.20;20.33;;;;;;;4.13;89.74;101901.34;5099561;28;20518;-65
2022/11/12 00:45:02;;;;;;;39.20;23.20;;;;;;;4.09;89.57;101909.44;5081203;28;20473;-66
2022/11/12 00:47:30;;;;;;;33.33;21.30;;;;;;;4.02;89.54;101911.44;5080932;28;20472;-65
2022/11/12 00:49:58;;;;;;;30.93;21.10;;;;;;;4.07;89.79;101912.13;5101899;28;20487;-65
2022/11/12 00:52:27;;;;;;;36.33;21.13;;;;;;;4.13;89.77;101911.03;5101485;28;20482;-65
2022/11/12 00:54:53;;;;;;;40.20;21.57;;;;;;;4.07;89.71;101913.94;5081593;28;20436;-65
2022/11/12 00:57:20;;;;;;;32.13;20.43;;;;;;;4.07;89.75;101911.28;5097328;28;20502;-65
2022/11/12 00:59:47;;;;;;;33.23;21.53;;;;;;;4.03;89.58;101910.53;5081125;28;20452;-65
2022/11/12 01:02:13;;;;;;;25.47;19.47;;;;;;;4.01;89.68;101912.38;5081303;28;20534;-65
2022/11/12 01:04:40;;;;;;;33.10;19.47;;;;;;;4.00;89.53;101915.09;5082490;28;20468;-65
2022/11/12 01:07:08;;;;;;;33.97;19.30;;;;;;;3.95;89.75;101912.59;5089658;28;20480;-65
2022/11/12 01:09:35;;;;;;;23.73;15.80;;;;;;;3.96;89.69;101912.56;5094357;28;20453;-68
2022/11/12 01:12:01;;;;;;;22.10;14.93;;;;;;;3.96;89.82;101915.19;5080792;28;20472;-67
2022/11/12 01:14:28;;;;;;;25.23;15.53;;;;;;;3.94;89.93;101921.44;5083717;28;21042;-65
2022/11/12 01:16:55;;;;;;;20.80;14.10;;;;;;;3.90;89.83;101920.69;5081389;28;20479;-65
2022/11/12 01:19:21;;;;;;;19.27;12.53;;;;;;;3.88;89.96;101913.75;5084234;28;20552;-65
2022/11/12 01:21:48;;;;;;;19.13;13.23;;;;;;;3.87;89.95;101915.53;5092354;28;20506;-65
2022/11/12 01:24:16;;;;;;;26.13;13.87;;;;;;;3.89;90.11;101919.00;5102783;28;20452;-66
2022/11/12 01:26:42;;;;;;;16.13;12.53;;;;;;;3.90;90.15;101920.69;5098253;28;20490;-66
2022/11/12 01:29:09;;;;;;;18.03;11.40;;;;;;;3.91;90.34;101908.34;5103584;28;20443;-65
2022/11/12 01:31:37;;;;;;;19.47;15.07;;;;;;;3.85;90.41;101919.16;5084957;28;20484;-65
2022/11/12 01:34:07;;;;;;;20.17;14.13;;;;;;;3.75;90.36;101916.84;5086571;28;20448;-65
2022/11/12 01:36:35;;;;;;;22.67;14.23;;;;;;;3.73;90.36;101917.81;5094209;28;20558;-65
2022/11/12 01:39:02;;;;;;;16.87;13.03;;;;;;;3.72;90.24;101922.25;5106475;28;20494;-65
2022/11/12 01:41:33;;;;;;;18.33;12.73;;;;;;;3.73;90.20;101912.50;5091264;28;20522;-65
2022/11/12 01:44:14;;;;;;;14.27;11.40;;;;;;;3.84;91.34;101917.44;5091439;28;20513;-66
2022/11/12 01:46:55;;;;;;;17.40;12.23;;;;;;;3.99;91.88;101914.19;5105581;28;20487;-66
2022/11/12 01:49:26;;;;;;;20.00;14.30;;;;;;;3.69;91.76;101925.00;5094866;28;20455;-65
2022/11/12 01:51:55;;;;;;;18.90;13.90;;;;;;;3.56;91.67;101921.94;5085212;28;20496;-65
2022/11/12 01:54:23;;;;;;;21.20;16.20;;;;;;;3.47;91.12;101924.91;5095093;28;20475;-65
2022/11/12 01:56:51;;;;;;;18.80;12.17;;;;;;;3.37;90.63;101924.34;5084686;28;21044;-65
2022/11/12 01:59:23;;;;;;;19.23;13.07;;;;;;;3.33;90.40;101927.16;5092235;28;20487;-65
2022/11/12 02:01:50;;;;;;;18.57;13.53;;;;;;;3.25;90.26;101916.84;5087563;28;20483;-65
2022/11/12 02:04:16;;;;;;;18.83;12.27;;;;;;;3.40;90.04;101920.72;5085813;28;20424;-65
2022/11/12 02:06:44;;;;;;;18.60;13.07;;;;;;;3.34;90.12;101916.53;5085192;28;20475;-64
2022/11/12 02:09:11;;;;;;;15.43;11.30;;;;;;;3.36;90.36;101914.69;5085802;28;20448;-64
2022/11/12 02:11:37;;;;;;;20.40;13.13;;;;;;;3.41;90.58;101917.19;5086441;28;21023;-65
2022/11/12 02:14:04;;;;;;;18.07;13.00;;;;;;;3.44;90.44;101911.78;5088931;28;21039;-65
2022/11/12 02:16:37;;;;;;;18.67;12.27;;;;;;;3.49;90.84;101911.59;5105146;28;20509;-65
2022/11/12 02:19:05;;;;;;;17.60;12.87;;;;;;;3.42;90.69;101912.75;5100753;28;20515;-65
2022/11/12 02:21:34;;;;;;;19.57;11.97;;;;;;;3.43;90.91;101906.56;5083975;28;20506;-65
2022/11/12 02:24:02;;;;;;;16.27;11.83;;;;;;;3.45;91.29;101915.28;5085465;28;22084;-66
2022/11/12 02:26:31;;;;;;;16.23;11.83;;;;;;;3.49;91.54;101914.25;5084722;28;20496;-66
2022/11/12 02:28:58;;;;;;;20.77;11.60;;;;;;;3.54;91.55;101913.19;5084717;28;20488;-65
2022/11/12 02:31:24;;;;;;;13.47;11.00;;;;;;;3.51;91.60;101918.59;5083455;28;20542;-66
2022/11/12 02:33:51;;;;;;;16.87;12.07;;;;;;;3.62;92.01;101918.19;5105343;28;20466;-65
2022/11/12 02:36:18;;;;;;;18.57;11.70;;;;;;;3.57;91.79;101925.44;5100773;28;20486;-66
2022/11/12 02:38:46;;;;;;;19.90;13.00;;;;;;;3.44;91.39;101911.78;5086858;28;20575;-65
2022/11/12 02:41:12;;;;;;;17.30;12.30;;;;;;;3.31;91.02;101916.63;5083926;28;20479;-65
2022/11/12 02:43:39;;;;;;;15.33;11.87;;;;;;;3.30;91.16;101916.66;5085392;28;20508;-65
2022/11/12 02:46:06;;;;;;;14.80;11.03;;;;;;;3.19;90.73;101922.34;5092005;28;20499;-65
2022/11/12 02:48:33;;;;;;;15.80;12.03;;;;;;;3.16;90.67;101923.31;5084724;28;20497;-66
2022/11/12 02:50:59;;;;;;;13.70;10.90;;;;;;;3.11;90.73;101921.75;5094165;28;20580;-65
2022/11/12 02:53:26;;;;;;;16.33;11.60;;;;;;;3.22;90.87;101911.66;5104612;28;20511;-65
2022/11/12 02:55:54;;;;;;;16.00;12.13;;;;;;;3.20;90.51;101910.84;5095529;28;20552;-65
2022/11/12 02:58:22;;;;;;;21.50;13.73;;;;;;;3.28;90.85;101908.81;5082980;28;20557;-65
2022/11/12 03:00:48;;;;;;;15.90;11.50;;;;;;;3.26;91.10;101907.13;5083698;28;20993;-65
2022/11/12 03:03:15;;;;;;;16.63;10.73;;;;;;;3.21;90.87;101902.00;5088395;28;20503;-65
2022/11/12 03:05:42;;;;;;;19.70;14.40;;;;;;;3.29;91.35;101904.38;5104360;28;20467;-65
2022/11/12 03:08:09;;;;;;;20.27;16.17;;;;;;;3.56;92.60;101898.13;5087757;28;20530;-65
2022/11/12 03:10:37;;;;;;;16.37;13.20;;;;;;;3.61;92.82;101895.34;5083385;28;20483;-65
2022/11/12 03:13:05;;;;;;;14.57;11.30;;;;;;;3.16;92.08;101898.63;5084717;28;20484;-65
2022/11/12 03:15:32;;;;;;;13.30;9.47;;;;;;;3.08;91.47;101901.56;5085125;28;20567;-65
2022/11/12 03:17:59;;;;;;;13.07;11.03;;;;;;;3.00;90.90;101899.19;5083525;28;20475;-65
2022/11/12 03:20:26;;;;;;;13.93;10.90;;;;;;;2.98;90.63;101908.06;5103664;28;21023;-65
2022/11/12 03:22:57;;;;;;;11.30;9.27;;;;;;;3.01;90.82;101905.31;5104172;28;20436;-65
2022/11/12 03:25:24;;;;;;;13.20;10.30;;;;;;;2.97;90.66;101906.34;5102415;28;20486;-66
2022/11/12 03:27:57;;;;;;;12.87;9.77;;;;;;;2.96;90.61;101907.25;5088543;28;20961;-65
2022/11/12 03:30:25;;;;;;;16.40;13.47;;;;;;;3.04;90.95;101901.69;5099727;28;20451;-65
2022/11/12 03:32:52;;;;;;;15.60;12.53;;;;;;;3.11;91.27;101898.81;5083689;28;20912;-65
2022/11/12 03:35:19;;;;;;;11.40;10.00;;;;;;;3.12;91.12;101902.31;5101328;28;20471;-65
2022/11/12 03:37:45;;;;;;;14.40;10.67;;;;;;;3.05;91.24;101906.94;5089601;28;20447;-65
2022/11/12 03:40:12;;;;;;;17.07;12.17;;;;;;;3.11;91.42;101900.59;5097696;28;20483;-65
2022/11/12 03:42:38;;;;;;;15.37;12.17;;;;;;;3.14;91.86;101905.75;5103520;28;20558;-65
2022/11/12 03:45:06;;;;;;;20.40;14.83;;;;;;;3.26;92.64;101901.84;5088812;28;20500;-65
2022/11/12 03:47:34;;;;;;;16.77;11.80;;;;;;;3.21;92.41;101896.72;5082449;28;20463;-65
2022/11/12 03:50:00;;;;;;;15.47;11.87;;;;;;;3.11;92.18;101898.81;5083046;28;20449;-65
2022/11/12 03:52:27;;;;;;;13.60;10.63;;;;;;;2.97;91.89;101896.63;5083055;28;20496;-65
2022/11/12 03:54:53;;;;;;;10.37;9.13;;;;;;;2.80;91.46;101888.41;5084565;28;20441;-66
2022/11/12 03:57:20;;;;;;;14.03;9.70;;;;;;;2.78;91.28;101884.97;5082823;28;20508;-64
2022/11/12 03:59:47;;;;;;;11.03;9.83;;;;;;;2.85;91.24;101882.94;5093261;28;20509;-64
2022/11/12 04:02:14;;;;;;;13.70;9.87;;;;;;;2.77;91.09;101884.06;5102750;28;20494;-65
2022/11/12 04:10:18;;;;;;;21.30;13.60;;;;;;;3.23;92.31;101879.03;5082123;28;20518;-64
2022/11/12 04:15:29;;;;;;;15.43;12.70;;;;;;;3.57;94.72;101869.91;5083456;28;20528;-64
2022/11/12 04:23:34;;;;;;;15.30;13.03;;;;;;;3.32;94.81;101873.44;5046217;28;20445;-64
2022/11/12 04:31:25;;;;;;;13.50;10.93;;;;;;;3.04;94.75;101868.25;5093086;28;20484;-65
2022/11/12 04:33:52;;;;;;;12.60;9.60;;;;;;;2.85;93.98;101867.09;5099740;28;20507;-65
2022/11/12 04:36:20;;;;;;;14.90;10.40;;;;;;;2.69;93.58;101866.75;5102592;28;20502;-65
2022/11/12 04:38:47;;;;;;;12.57;8.90;;;;;;;2.61;93.14;101865.22;5101074;28;20514;-65
2022/11/12 04:46:41;;;;;;;11.17;8.73;;;;;;;2.41;92.61;101871.16;5082104;28;20470;-65
2022/11/12 04:49:08;;;;;;;12.80;10.50;;;;;;;2.42;92.59;101866.75;5085370;28;20520;-65
2022/11/12 04:54:20;;;;;;;13.57;9.93;;;;;;;2.46;92.31;101868.34;5083159;28;21002;-66
2022/11/12 04:56:47;;;;;;;16.00;11.30;;;;;;;2.46;92.19;101865.72;5085472;28;20507;-65
2022/11/12 04:59:13;;;;;;;14.80;12.10;;;;;;;2.50;92.29;101866.47;5096030;28;20930;-65
2022/11/12 05:01:40;;;;;;;16.80;11.00;;;;;;;2.51;92.27;101866.44;5081367;28;20496;-66
2022/11/12 05:04:07;;;;;;;15.97;12.30;;;;;;;2.53;92.21;101858.47;5082624;28;20471;-65
2022/11/12 05:06:51;;;;;;;16.83;11.63;;;;;;;2.53;92.19;101867.25;5082548;28;20511;-64
2022/11/12 05:09:21;;;;;;;17.07;11.60;;;;;;;2.57;92.54;101868.91;5064498;28;20504;-63
2022/11/12 05:11:47;;;;;;;16.67;11.47;;;;;;;2.56;92.51;101874.22;5083264;28;20514;-63
2022/11/12 05:14:14;;;;;;;17.53;12.27;;;;;;;2.53;92.47;101872.53;5090776;28;20491;-64
2022/11/12 05:16:41;;;;;;;22.47;14.40;;;;;;;2.60;92.73;101876.72;5087879;28;20488;-63
2022/11/12 05:19:07;;;;;;;23.10;15.43;;;;;;;2.69;93.14;101872.03;5081835;28;20494;-64
2022/11/12 05:24:20;;;;;;;18.13;13.90;;;;;;;2.61;93.47;101875.78;5091157;28;20431;-63
2022/11/12 05:26:47;;;;;;;17.20;13.23;;;;;;;2.57;93.83;101875.94;5094628;28;20507;-63
2022/11/12 05:29:14;;;;;;;22.13;14.50;;;;;;;2.61;94.35;101867.88;5082360;28;20464;-61
2022/11/12 05:31:40;;;;;;;21.10;14.10;;;;;;;2.70;94.35;101872.00;5086483;28;20491;-64
2022/11/12 05:34:07;;;;;;;20.13;14.90;;;;;;;2.81;94.54;101882.19;5082458;28;20453;-63
2022/11/12 05:36:34;;;;;;;19.83;13.50;;;;;;;2.78;94.52;101874.41;5090144;28;20495;-63
2022/11/12 05:39:03;;;;;;;17.30;13.90;;;;;;;2.68;94.12;101878.25;5095165;28;20491;-64
2022/11/12 05:41:31;;;;;;;16.27;12.43;;;;;;;2.59;93.87;101876.78;5081983;28;20480;-64
2022/11/12 05:43:58;;;;;;;17.70;14.03;;;;;;;2.54;93.85;101874.25;5081128;28;20508;-64
2022/11/12 05:46:28;;;;;;;18.60;13.60;;;;;;;2.41;93.59;101878.19;5081709;28;20510;-64
2022/11/12 05:48:54;;;;;;;16.27;12.37;;;;;;;2.31;93.21;101868.84;5080731;28;20432;-64
2022/11/12 05:51:21;;;;;;;151.30;77.23;;;;;;;2.25;93.13;101864.63;5068069;28;20499;-64
2022/11/12 05:53:47;;;;;;;16.30;12.83;;;;;;;2.25;93.12;101857.56;5081936;28;20439;-64
2022/11/12 05:56:14;;;;;;;17.10;12.80;;;;;;;2.25;93.03;101860.19;5081542;28;20512;-64
2022/11/12 05:58:42;;;;;;;16.87;12.63;;;;;;;2.29;92.96;101868.88;5081603;28;20476;-64
2022/11/12 06:01:09;;;;;;;26.10;17.90;;;;;;;2.23;92.78;101856.75;5083121;28;20503;-65
2022/11/12 06:03:35;;;;;;;19.83;13.50;;;;;;;2.24;92.64;101855.84;5089074;28;20500;-64
2022/11/12 06:06:02;;;;;;;20.23;14.43;;;;;;;2.20;92.39;101861.25;5102576;28;20509;-64
2022/11/12 06:08:28;;;;;;;26.20;16.90;;;;;;;2.12;92.65;101869.41;5085168;28;20483;-64
2022/11/12 06:10:55;;;;;;;25.47;16.40;;;;;;;2.21;92.96;101874.41;5083886;28;20529;-64
2022/11/12 06:13:24;;;;;;;21.83;16.43;;;;;;;2.26;93.29;101875.13;5095801;28;20524;-65
2022/11/12 06:15:52;;;;;;;21.37;13.97;;;;;;;2.33;93.36;101872.31;5085020;28;20503;-64
